Manchester, Maryland
Current Conditions -  °F | °C
As of 4:00 PM on Tuesday 27 Jan 2015 (Local Time) from KDMW Reporting Station
Broken Clouds Broken Clouds  
Wind Chill: 24°   Ceiling: 5000
Heat Index: 32°   Visibility: 10mi
Dew Point: 21°   Wind: 10mph
Humidity: 64%   Direction: 300°WNW
Pressure: 29.78"   Gusts: 18mph
Location:  39.66°N, 76.88°W
Report Text: KDMW 272100Z AUTO 30009G16KT 10SM BKN050 BKN080 00/M06 A2978 RMK AO2
Loading
Personal Weather Stations






























Interactive Weather Map New forecast layout! Learn more

10-Day Weather Forecast

Advertisements
Track Severe Weather on mobile